Time;durP1;ratioP1;P1;durP2;ratioP2;P2;SDS_P1;SDS_P2;PMS_P1;PMS_P2;Temp;Humidity;BMP_temperature;BMP_pressure;BME280_temperature;BME280_humidity;BME280_pressure;Samples;Min_cycle;Max_cycle;Signal;HPM_P1;HPM_P2
2021/05/19 00:01:28;;;;;;;2.60;2.40;;;10.50;99.90;;;;;;5068526;28;20267;-54
2021/05/19 00:03:54;;;;;;;3.63;2.67;;;10.40;99.90;;;;;;5070583;28;20654;-53
2021/05/19 00:06:20;;;;;;;2.90;2.50;;;10.50;99.90;;;;;;5068219;28;20189;-52
2021/05/19 00:08:45;;;;;;;2.83;2.40;;;10.50;99.90;;;;;;5068585;28;20213;-54
2021/05/19 00:11:11;;;;;;;3.50;2.30;;;10.60;99.90;;;;;;5068668;28;20181;-54
2021/05/19 00:13:37;;;;;;;3.33;2.20;;;10.60;99.90;;;;;;5068284;28;20211;-54
2021/05/19 00:16:07;;;;;;;2.67;2.47;;;10.80;99.90;;;;;;5068580;28;20522;-54
2021/05/19 00:18:36;;;;;;;3.72;2.75;;;10.60;99.90;;;;;;5067376;28;20438;-52
2021/05/19 00:21:04;;;;;;;2.75;2.40;;;10.80;99.90;;;;;;5070355;28;20181;-53
2021/05/19 00:23:29;;;;;;;2.28;2.10;;;10.50;99.90;;;;;;5068183;28;20181;-54
2021/05/19 00:25:55;;;;;;;8.50;2.20;;;10.60;99.90;;;;;;5068232;28;20496;-52
2021/05/19 00:28:21;;;;;;;2.33;2.13;;;10.60;99.90;;;;;;5068019;28;20281;-53
2021/05/19 00:30:49;;;;;;;2.40;2.20;;;10.50;99.90;;;;;;5067234;28;20181;-53
2021/05/19 00:33:15;;;;;;;2.10;1.90;;;10.60;99.90;;;;;;5067770;28;20212;-52
2021/05/19 00:35:41;;;;;;;2.50;2.30;;;10.60;99.90;;;;;;5068303;28;20673;-52
2021/05/19 00:38:06;;;;;;;2.40;2.20;;;10.60;99.90;;;;;;5072218;28;20185;-54
2021/05/19 00:40:32;;;;;;;2.43;2.23;;;10.50;99.90;;;;;;5067906;28;20230;-54
2021/05/19 00:42:58;;;;;;;2.70;1.80;;;10.50;99.90;;;;;;5067796;28;20262;-53
2021/05/19 00:45:24;;;;;;;2.35;2.15;;;10.50;99.90;;;;;;5065687;28;20247;-54
2021/05/19 00:47:50;;;;;;;2.00;1.90;;;10.50;99.90;;;;;;5067647;28;20710;-54
2021/05/19 00:50:25;;;;;;;2.45;2.25;;;10.60;99.90;;;;;;5067733;28;20660;-52
2021/05/19 00:52:51;;;;;;;2.58;2.35;;;10.40;99.90;;;;;;5068110;28;20196;-54
2021/05/19 00:55:17;;;;;;;2.63;2.27;;;10.70;99.90;;;;;;5068635;28;20295;-53
2021/05/19 00:57:44;;;;;;;3.95;2.40;;;10.80;99.90;;;;;;5067494;28;20435;-53
2021/05/19 01:00:14;;;;;;;2.38;2.15;;;10.70;99.90;;;;;;5067148;28;20193;-53
2021/05/19 01:02:40;;;;;;;2.53;2.33;;;10.90;99.90;;;;;;5067700;28;20201;-54
2021/05/19 01:05:25;;;;;;;2.33;2.13;;;10.80;99.90;;;;;;5067737;28;20197;-53
2021/05/19 01:10:35;;;;;;;2.88;2.42;;;10.80;99.90;;;;;;5069743;28;20192;-54
2021/05/19 01:13:00;;;;;;;3.30;2.20;;;10.50;99.90;;;;;;5066967;28;20181;-53
2021/05/19 01:15:26;;;;;;;2.57;2.37;;;10.60;99.90;;;;;;5067698;28;20257;-54
2021/05/19 01:17:52;;;;;;;1.80;1.70;;;10.60;99.90;;;;;;5065709;28;20238;-54
2021/05/19 01:20:18;;;;;;;3.45;2.40;;;10.90;99.90;;;;;;5067628;28;20562;-54
2021/05/19 01:22:43;;;;;;;4.60;2.10;;;10.80;99.90;;;;;;5067558;28;20215;-54
2021/05/19 01:25:11;;;;;;;2.63;2.30;;;10.80;99.90;;;;;;5067615;28;20209;-55
2021/05/19 01:27:37;;;;;;;2.60;2.40;;;10.80;99.90;;;;;;5070526;28;20268;-54
2021/05/19 01:30:07;;;;;;;3.40;2.55;;;10.50;99.90;;;;;;5070068;28;20522;-54
2021/05/19 01:32:33;;;;;;;2.33;2.15;;;10.50;99.90;;;;;;5066895;28;20204;-53
2021/05/19 01:34:59;;;;;;;2.10;1.90;;;10.70;99.90;;;;;;5068802;28;20213;-53
2021/05/19 01:37:25;;;;;;;2.00;1.80;;;10.80;99.90;;;;;;5066711;28;20184;-54
2021/05/19 01:39:51;;;;;;;2.57;2.30;;;10.80;99.90;;;;;;5067548;28;20184;-54
2021/05/19 01:42:17;;;;;;;2.08;1.98;;;11.10;99.90;;;;;;5067498;28;20471;-54
2021/05/19 01:44:43;;;;;;;2.60;2.40;;;11.10;99.90;;;;;;5067897;28;20300;-54
2021/05/19 01:47:09;;;;;;;2.50;2.30;;;10.90;99.90;;;;;;5068904;28;20221;-53
2021/05/19 01:49:42;;;;;;;2.47;2.28;;;10.80;99.90;;;;;;5067116;28;20557;-54
2021/05/19 01:52:10;;;;;;;3.45;2.50;;;10.90;99.90;;;;;;5067201;28;20189;-54
2021/05/19 01:54:39;;;;;;;3.35;2.45;;;10.90;99.90;;;;;;5066838;28;20604;-52
2021/05/19 01:57:09;;;;;;;2.58;2.17;;;11.00;99.90;;;;;;5066430;28;20628;-53
2021/05/19 01:59:35;;;;;;;3.05;2.70;;;10.90;99.90;;;;;;5066738;28;20193;-54
2021/05/19 02:02:01;;;;;;;3.07;2.40;;;10.70;99.90;;;;;;5071711;28;20250;-54
2021/05/19 02:04:26;;;;;;;2.50;2.37;;;11.10;99.90;;;;;;5069319;28;20200;-54
2021/05/19 02:06:55;;;;;;;2.50;2.30;;;11.20;99.90;;;;;;5071050;28;20192;-54
2021/05/19 02:09:21;;;;;;;2.88;2.55;;;10.90;99.90;;;;;;5070483;28;20743;-53
2021/05/19 02:11:48;;;;;;;2.25;2.05;;;11.10;99.90;;;;;;5071079;28;20284;-52
2021/05/19 02:14:15;;;;;;;2.70;2.50;;;11.20;99.90;;;;;;5070345;28;20201;-53
2021/05/19 02:19:24;;;;;;;2.33;2.17;;;10.60;99.90;;;;;;5077968;28;20314;-53
2021/05/19 02:21:50;;;;;;;2.27;2.17;;;10.70;99.90;;;;;;5070144;28;20212;-52
2021/05/19 02:24:17;;;;;;;7.60;2.47;;;10.50;99.90;;;;;;5071528;28;20448;-54
2021/05/19 02:26:44;;;;;;;2.63;2.42;;;10.80;99.90;;;;;;5070589;28;20283;-53
2021/05/19 02:29:10;;;;;;;3.00;2.80;;;10.60;99.90;;;;;;5070411;28;20650;-52
2021/05/19 02:31:38;;;;;;;2.78;2.58;;;10.60;99.90;;;;;;5069158;28;20462;-54
2021/05/19 02:34:04;;;;;;;2.80;2.60;;;10.70;99.90;;;;;;5064294;28;20197;-53
2021/05/19 02:36:30;;;;;;;3.28;3.00;;;10.70;99.90;;;;;;5070460;28;20654;-53
2021/05/19 02:38:55;;;;;;;2.80;2.50;;;10.70;99.90;;;;;;5069657;28;20272;-53
2021/05/19 02:41:22;;;;;;;2.93;2.73;;;10.60;99.90;;;;;;5069830;28;20204;-54
2021/05/19 02:43:48;;;;;;;2.97;2.75;;;10.60;99.90;;;;;;5069908;28;20208;-54
2021/05/19 02:46:13;;;;;;;2.70;2.50;;;10.60;99.90;;;;;;5070428;28;20177;-54
2021/05/19 02:48:40;;;;;;;2.97;2.67;;;10.50;99.90;;;;;;5068608;28;20483;-54
2021/05/19 02:51:06;;;;;;;3.08;2.78;;;10.30;99.90;;;;;;5069640;28;20690;-53
2021/05/19 02:53:32;;;;;;;2.70;2.50;;;10.10;99.90;;;;;;5072810;28;20227;-54
2021/05/19 02:55:58;;;;;;;2.93;2.73;;;10.20;99.90;;;;;;5070176;28;20189;-53
2021/05/19 02:58:23;;;;;;;2.80;2.60;;;10.20;99.90;;;;;;5069073;28;20709;-54
2021/05/19 03:00:49;;;;;;;3.27;2.97;;;10.40;99.90;;;;;;5070297;28;20576;-54
2021/05/19 03:03:15;;;;;;;3.67;2.70;;;10.50;99.90;;;;;;5070111;28;20731;-53
2021/05/19 03:05:41;;;;;;;3.13;2.93;;;10.40;99.90;;;;;;5069256;28;20609;-54
2021/05/19 03:08:07;;;;;;;3.25;2.95;;;10.50;99.90;;;;;;5059080;28;20406;-53
2021/05/19 03:10:34;;;;;;;4.93;3.00;;;10.60;99.90;;;;;;5069606;28;20549;-53
2021/05/19 03:13:01;;;;;;;3.22;2.55;;;10.60;99.90;;;;;;5070129;28;20723;-53
2021/05/19 03:15:27;;;;;;;3.40;2.65;;;10.40;99.90;;;;;;5069619;28;20701;-53
2021/05/19 03:17:53;;;;;;;3.90;3.03;;;10.60;99.90;;;;;;5069180;28;20185;-54
2021/05/19 03:20:19;;;;;;;3.92;2.88;;;10.50;99.90;;;;;;5069421;28;20659;-52
2021/05/19 03:22:44;;;;;;;2.83;2.63;;;10.60;99.90;;;;;;5069475;28;20219;-54
2021/05/19 03:25:11;;;;;;;2.63;2.40;;;10.50;99.90;;;;;;5071060;28;20208;-54
2021/05/19 03:27:37;;;;;;;3.00;2.80;;;10.40;99.90;;;;;;5075528;28;20272;-54
2021/05/19 03:30:06;;;;;;;2.80;2.60;;;10.30;99.90;;;;;;5069055;28;20268;-54
2021/05/19 03:32:32;;;;;;;3.90;3.60;;;10.70;99.90;;;;;;5066749;28;20193;-54
2021/05/19 03:34:58;;;;;;;3.57;3.23;;;10.70;99.90;;;;;;5065385;28;20270;-53
2021/05/19 03:37:23;;;;;;;3.33;2.90;;;10.70;99.90;;;;;;5069093;28;20263;-53
2021/05/19 03:39:49;;;;;;;3.37;3.07;;;10.80;99.90;;;;;;5068732;28;20209;-53
2021/05/19 03:42:16;;;;;;;4.43;2.90;;;10.70;99.90;;;;;;5068411;28;20226;-54
2021/05/19 03:44:41;;;;;;;2.97;2.78;;;10.70;99.90;;;;;;5068759;28;20204;-53
2021/05/19 03:47:07;;;;;;;3.13;2.77;;;10.80;99.90;;;;;;5067531;28;20181;-54
2021/05/19 03:49:37;;;;;;;2.80;2.60;;;10.80;99.90;;;;;;5069082;28;20205;-54
2021/05/19 03:52:03;;;;;;;2.83;2.50;;;11.00;99.90;;;;;;5068467;28;20181;-54
2021/05/19 03:54:31;;;;;;;4.25;3.85;;;10.90;99.90;;;;;;5068503;28;20201;-55
2021/05/19 03:56:57;;;;;;;2.70;2.50;;;10.60;99.90;;;;;;5068615;28;20581;-53
2021/05/19 03:59:23;;;;;;;2.63;2.43;;;10.80;99.90;;;;;;5066523;28;20188;-54
2021/05/19 04:01:48;;;;;;;2.90;2.70;;;10.50;99.90;;;;;;5071618;28;20205;-53
2021/05/19 04:04:14;;;;;;;3.33;2.83;;;10.60;99.90;;;;;;5064775;28;20201;-52
2021/05/19 04:06:39;;;;;;;2.93;2.70;;;10.90;99.90;;;;;;5066030;28;20235;-54
2021/05/19 04:09:06;;;;;;;5.77;3.00;;;10.50;99.90;;;;;;5067337;28;20223;-53
2021/05/19 04:11:32;;;;;;;3.22;2.95;;;10.50;99.90;;;;;;5057837;28;20224;-53
2021/05/19 04:16:34;;;;;;;2.95;2.75;;;10.80;99.90;;;;;;5487419;22;20226;-57
2021/05/19 04:19:00;;;;;;;3.10;2.90;;;10.70;99.90;;;;;;5046890;28;20192;-56
2021/05/19 04:21:26;;;;;;;3.25;3.00;;;11.10;99.90;;;;;;5046442;28;20227;-57
2021/05/19 04:23:52;;;;;;;2.77;2.57;;;10.70;99.90;;;;;;5043359;28;20293;-57
2021/05/19 04:26:18;;;;;;;3.40;3.10;;;10.90;99.90;;;;;;5062110;28;20459;-54
2021/05/19 04:28:46;;;;;;;3.45;3.15;;;10.90;99.90;;;;;;5042304;28;20189;-58
2021/05/19 04:31:13;;;;;;;2.85;2.65;;;10.90;99.90;;;;;;5044328;28;20284;-55
2021/05/19 04:33:45;;;;;;;3.58;3.28;;;10.90;99.90;;;;;;5043849;28;20198;-55
2021/05/19 04:36:10;;;;;;;3.90;3.50;;;10.80;99.90;;;;;;5041879;28;20186;-55
2021/05/19 04:38:37;;;;;;;4.30;3.90;;;11.10;99.90;;;;;;5044315;28;20180;-55
2021/05/19 04:41:03;;;;;;;3.70;3.40;;;10.80;99.90;;;;;;5063640;28;20740;-54
2021/05/19 04:43:29;;;;;;;3.05;2.85;;;10.80;99.90;;;;;;5040975;28;20190;-54
2021/05/19 04:45:55;;;;;;;3.60;3.30;;;10.70;99.90;;;;;;5043315;28;20181;-54
2021/05/19 04:48:21;;;;;;;4.60;3.00;;;10.90;99.90;;;;;;5046226;28;20192;-54
2021/05/19 04:50:46;;;;;;;3.90;3.60;;;10.80;99.90;;;;;;5038991;28;20290;-53
2021/05/19 04:53:13;;;;;;;3.43;3.13;;;11.00;99.90;;;;;;5031451;28;20422;-55
2021/05/19 04:55:39;;;;;;;3.20;3.00;;;10.20;99.90;;;;;;5036992;28;20182;-52
2021/05/19 04:58:06;;;;;;;3.13;2.83;;;10.80;99.90;;;;;;5040416;28;20201;-53
2021/05/19 05:00:33;;;;;;;3.65;3.35;;;10.70;99.90;;;;;;5044872;28;20185;-53
2021/05/19 05:02:59;;;;;;;3.10;2.90;;;10.40;99.90;;;;;;5038525;28;20202;-51
2021/05/19 05:05:25;;;;;;;2.90;2.70;;;10.70;99.90;;;;;;5042239;28;20542;-50
2021/05/19 05:07:50;;;;;;;3.43;3.17;;;11.00;99.90;;;;;;5042909;28;20300;-51
2021/05/19 05:10:16;;;;;;;5.37;3.97;;;10.90;99.90;;;;;;5043047;28;20271;-51
2021/05/19 05:12:43;;;;;;;3.20;3.00;;;10.70;99.90;;;;;;5041831;28;20326;-50
2021/05/19 05:15:15;;;;;;;4.95;3.60;;;10.70;99.90;;;;;;5048088;28;20657;-52
2021/05/19 05:17:40;;;;;;;3.80;3.50;;;10.80;99.90;;;;;;5039478;28;20193;-53
2021/05/19 05:20:09;;;;;;;3.30;3.10;;;10.80;99.90;;;;;;5042611;28;20189;-52
2021/05/19 05:22:36;;;;;;;3.95;3.53;;;11.10;99.90;;;;;;5034282;28;20439;-52
2021/05/19 05:25:03;;;;;;;4.07;3.67;;;11.10;99.90;;;;;;5043507;28;20853;-53
2021/05/19 05:27:29;;;;;;;3.80;3.50;;;11.40;99.90;;;;;;5040872;28;20201;-54
2021/05/19 05:29:55;;;;;;;3.70;3.40;;;11.50;99.90;;;;;;5046599;28;20186;-52
2021/05/19 05:32:21;;;;;;;3.80;3.47;;;11.50;99.90;;;;;;5043145;28;20555;-54
2021/05/19 05:34:46;;;;;;;3.60;3.30;;;11.90;99.90;;;;;;5038801;28;20217;-54
2021/05/19 05:37:12;;;;;;;4.77;3.40;;;11.60;99.90;;;;;;5030202;28;20190;-54
2021/05/19 05:39:38;;;;;;;4.10;3.80;;;12.00;99.90;;;;;;5038410;28;20232;-53
2021/05/19 05:42:04;;;;;;;3.57;3.30;;;11.80;99.90;;;;;;5047717;28;20197;-56
2021/05/19 05:44:29;;;;;;;4.00;3.60;;;11.70;99.90;;;;;;5040364;28;20683;-56
2021/05/19 05:46:55;;;;;;;3.20;3.00;;;11.50;99.90;;;;;;5032570;28;20186;-55
2021/05/19 05:49:21;;;;;;;3.77;3.47;;;11.50;99.90;;;;;;5037718;28;20197;-56
2021/05/19 05:51:47;;;;;;;3.90;3.57;;;11.70;99.90;;;;;;5040261;28;20564;-53
2021/05/19 05:54:13;;;;;;;4.00;3.58;;;11.70;99.90;;;;;;5037557;28;20298;-53
2021/05/19 05:56:41;;;;;;;4.13;3.73;;;11.70;99.90;;;;;;5041872;28;20366;-54
2021/05/19 05:59:10;;;;;;;3.65;3.40;;;11.50;99.90;;;;;;5065229;28;20202;-53
2021/05/19 06:01:35;;;;;;;4.20;3.90;;;11.60;99.90;;;;;;5044893;28;20213;-54
2021/05/19 06:04:01;;;;;;;3.40;3.10;;;11.00;99.90;;;;;;5042751;28;20248;-54
2021/05/19 06:06:27;;;;;;;3.57;3.27;;;11.70;99.90;;;;;;5047194;28;20543;-54
2021/05/19 06:08:53;;;;;;;3.97;3.60;;;11.90;99.90;;;;;;5036299;28;20280;-54
2021/05/19 06:11:19;;;;;;;3.67;3.40;;;12.20;99.90;;;;;;5038358;28;20688;-53
2021/05/19 06:13:44;;;;;;;3.70;3.30;;;12.00;99.90;;;;;;5044259;28;20682;-50
2021/05/19 06:16:10;;;;;;;3.80;3.50;;;12.50;99.90;;;;;;5040127;28;20622;-54
2021/05/19 06:18:36;;;;;;;4.90;3.90;;;12.20;99.90;;;;;;5049132;28;20259;-54
2021/05/19 06:21:01;;;;;;;4.43;4.13;;;12.00;99.90;;;;;;5044743;28;20541;-53
2021/05/19 06:23:27;;;;;;;7.30;3.77;;;12.10;99.90;;;;;;5042732;28;20644;-53
2021/05/19 06:25:53;;;;;;;5.10;4.63;;;12.30;99.90;;;;;;5047757;28;20444;-52
2021/05/19 06:28:18;;;;;;;4.03;3.73;;;12.20;99.90;;;;;;5059399;28;20445;-53
2021/05/19 06:30:44;;;;;;;7.33;6.63;;;12.40;99.90;;;;;;5043761;28;20270;-51
2021/05/19 06:33:10;;;;;;;3.87;3.57;;;12.70;99.90;;;;;;5046447;28;20683;-52
2021/05/19 06:35:35;;;;;;;3.13;2.93;;;13.50;99.90;;;;;;5035392;28;20213;-52
2021/05/19 06:38:01;;;;;;;3.40;3.10;;;14.40;99.90;;;;;;5038375;28;20186;-52
2021/05/19 06:40:27;;;;;;;3.20;3.00;;;14.50;99.90;;;;;;5045148;28;20202;-52
2021/05/19 06:42:53;;;;;;;3.50;3.20;;;14.60;99.90;;;;;;5031818;28;20686;-52
2021/05/19 06:45:18;;;;;;;3.30;3.00;;;14.60;99.90;;;;;;5038649;28;20302;-53
2021/05/19 06:47:44;;;;;;;4.23;3.07;;;14.60;99.90;;;;;;5038693;28;20209;-53
2021/05/19 06:50:10;;;;;;;3.03;2.80;;;14.80;99.90;;;;;;5036255;28;20178;-53
2021/05/19 06:52:36;;;;;;;3.63;3.33;;;14.70;99.90;;;;;;5042712;28;20265;-53
2021/05/19 06:55:06;;;;;;;6.30;3.05;;;14.90;99.90;;;;;;5036844;28;20300;-54
2021/05/19 06:57:32;;;;;;;4.35;3.60;;;15.70;99.50;;;;;;5045569;28;20224;-53
2021/05/19 06:59:57;;;;;;;3.30;3.03;;;16.10;98.50;;;;;;5040693;28;20209;-52
2021/05/19 07:02:23;;;;;;;2.97;2.77;;;16.20;98.60;;;;;;5042247;28;20233;-51
2021/05/19 07:04:48;;;;;;;3.63;3.30;;;16.40;97.70;;;;;;5041167;28;20524;-52
2021/05/19 07:07:14;;;;;;;4.47;4.07;;;16.20;97.90;;;;;;5041712;28;20672;-52
2021/05/19 07:09:40;;;;;;;3.80;2.73;;;16.10;96.90;;;;;;5040322;28;20181;-51
2021/05/19 07:12:06;;;;;;;3.73;3.17;;;15.60;97.00;;;;;;5033249;28;20285;-51
2021/05/19 07:14:35;;;;;;;3.50;3.20;;;15.50;97.60;;;;;;5037298;28;20682;-53
2021/05/19 07:17:00;;;;;;;3.17;2.88;;;15.50;97.60;;;;;;5019302;28;603820;-52
2021/05/19 07:19:26;;;;;;;3.00;2.70;;;16.20;97.00;;;;;;5038250;28;20755;-52
2021/05/19 07:21:52;;;;;;;2.40;2.20;;;16.70;95.20;;;;;;5042564;28;20201;-52
2021/05/19 07:24:18;;;;;;;2.20;2.00;;;17.90;94.10;;;;;;5045363;28;20205;-51
2021/05/19 07:26:46;;;;;;;3.42;3.13;;;18.80;91.60;;;;;;5046227;28;20440;-51
2021/05/19 07:29:12;;;;;;;2.22;2.05;;;18.80;90.40;;;;;;5045268;28;20313;-51
2021/05/19 07:31:39;;;;;;;2.92;2.40;;;18.40;90.60;;;;;;5041458;28;20180;-52
2021/05/19 07:34:05;;;;;;;2.53;2.00;;;18.20;90.80;;;;;;5040112;28;20821;-52
2021/05/19 07:36:30;;;;;;;2.60;2.40;;;17.40;91.50;;;;;;5044006;28;20284;-51
2021/05/19 07:38:56;;;;;;;2.40;2.20;;;16.80;92.90;;;;;;5038164;28;20573;-50
2021/05/19 07:41:24;;;;;;;2.80;2.27;;;16.20;93.90;;;;;;5032383;28;20452;-50
2021/05/19 07:43:51;;;;;;;3.88;2.55;;;15.60;95.20;;;;;;5044051;28;20468;-50
2021/05/19 07:46:17;;;;;;;2.80;2.50;;;15.10;96.20;;;;;;5040952;28;20607;-51
2021/05/19 07:48:44;;;;;;;2.65;2.30;;;14.90;97.40;;;;;;5035863;28;20651;-49
2021/05/19 07:51:09;;;;;;;2.95;2.75;;;15.10;97.40;;;;;;5062257;28;20185;-51
2021/05/19 07:53:35;;;;;;;3.20;2.90;;;14.70;98.00;;;;;;5041895;28;20209;-50
2021/05/19 07:58:50;;;;;;;3.22;2.92;;;14.30;99.40;;;;;;5045148;28;21001;-52
2021/05/19 08:03:54;;;;;;;3.47;3.17;;;14.30;99.90;;;;;;5042189;28;20665;-52
2021/05/19 08:06:20;;;;;;;3.03;2.73;;;14.30;99.90;;;;;;5038441;28;20192;-50
2021/05/19 08:08:47;;;;;;;3.90;3.50;;;14.10;99.90;;;;;;5062688;28;20874;-51
2021/05/19 08:11:15;;;;;;;2.72;2.53;;;14.10;99.90;;;;;;5038540;28;20182;-53
2021/05/19 08:13:41;;;;;;;2.85;2.65;;;14.70;99.60;;;;;;5037893;28;20208;-53
2021/05/19 08:16:07;;;;;;;3.33;3.03;;;14.60;98.80;;;;;;5045077;28;20186;-51
2021/05/19 08:18:35;;;;;;;3.13;2.92;;;14.70;98.70;;;;;;5039540;28;20190;-51
2021/05/19 08:21:01;;;;;;;4.65;3.03;;;14.80;98.70;;;;;;5042134;28;20351;-52
2021/05/19 08:23:27;;;;;;;2.90;2.70;;;15.20;98.60;;;;;;5043764;28;20232;-52
2021/05/19 08:25:54;;;;;;;3.00;2.70;;;15.30;98.40;;;;;;5045163;28;20653;-52
2021/05/19 08:28:19;;;;;;;2.40;2.20;;;16.10;96.90;;;;;;5036681;28;20185;-52
2021/05/19 08:30:45;;;;;;;6.10;2.33;;;17.10;94.90;;;;;;5045965;28;20548;-52
2021/05/19 08:33:11;;;;;;;4.43;2.70;;;17.90;92.80;;;;;;5047136;28;20283;-51
2021/05/19 08:35:36;;;;;;;2.20;2.07;;;19.00;90.10;;;;;;5044238;28;20233;-50
2021/05/19 08:38:05;;;;;;;3.00;2.60;;;19.70;88.50;;;;;;5033983;28;20190;-51
2021/05/19 08:40:31;;;;;;;2.88;2.28;;;20.20;83.70;;;;;;5037960;28;20213;-51
2021/05/19 08:42:57;;;;;;;4.00;2.87;;;19.90;83.40;;;;;;5045287;28;20291;-54
2021/05/19 08:45:23;;;;;;;2.97;2.63;;;19.30;84.60;;;;;;5043661;28;20210;-50
2021/05/19 08:47:59;;;;;;;2.60;2.03;;;19.00;87.10;;;;;;5045071;28;20435;-51
2021/05/19 08:50:25;;;;;;;3.95;2.35;;;18.80;85.80;;;;;;5061194;28;20442;-52
2021/05/19 08:52:51;;;;;;;2.20;2.00;;;18.60;86.00;;;;;;5048308;28;20188;-51
2021/05/19 08:55:18;;;;;;;2.83;2.60;;;18.20;84.20;;;;;;5042550;28;20457;-50
2021/05/19 08:57:44;;;;;;;6.22;2.28;;;18.20;83.80;;;;;;5042986;28;20443;-51
2021/05/19 09:00:11;;;;;;;2.42;2.22;;;18.10;82.80;;;;;;5045049;28;20212;-49
2021/05/19 09:02:37;;;;;;;2.55;2.33;;;18.20;82.30;;;;;;5042900;28;20295;-52
2021/05/19 09:05:05;;;;;;;1.73;1.63;;;18.40;81.40;;;;;;5045213;28;20208;-50
2021/05/19 09:07:31;;;;;;;3.75;2.42;;;19.70;78.50;;;;;;5032866;28;20273;-49
2021/05/19 09:09:56;;;;;;;2.77;2.30;;;20.60;74.90;;;;;;5038494;28;20269;-52
2021/05/19 09:12:22;;;;;;;2.70;2.30;;;22.10;70.20;;;;;;5045629;28;20276;-51
2021/05/19 09:14:51;;;;;;;4.23;2.50;;;22.90;67.50;;;;;;5041636;28;20651;-51
2021/05/19 09:17:30;;;;;;;2.13;1.93;;;24.40;62.80;;;;;;5046097;28;20207;-52
2021/05/19 09:20:15;;;;;;;2.73;2.53;;;25.30;58.60;;;;;;5044062;28;20448;-53
2021/05/19 09:22:46;;;;;;;2.10;1.80;;;26.10;56.00;;;;;;5036071;28;20627;-51
2021/05/19 09:25:32;;;;;;;4.53;1.57;;;26.00;52.80;;;;;;5043211;28;20470;-51
2021/05/19 09:28:00;;;;;;;1.50;1.40;;;25.50;53.20;;;;;;5044992;28;20443;-50
2021/05/19 09:30:43;;;;;;;1.73;1.47;;;26.10;52.00;;;;;;5035684;28;20436;-51
2021/05/19 09:33:16;;;;;;;2.07;1.37;;;26.30;49.60;;;;;;5044621;28;20816;-52
2021/05/19 09:35:46;;;;;;;1.00;1.00;;;26.00;48.30;;;;;;5044985;28;20979;-52
2021/05/19 09:38:29;;;;;;;2.40;1.20;;;25.90;47.30;;;;;;5042692;28;20968;-51
2021/05/19 09:41:16;;;;;;;2.00;1.10;;;26.40;47.30;;;;;;5038607;28;20937;-51
2021/05/19 09:43:42;;;;;;;2.57;1.50;;;26.90;45.60;;;;;;5040253;28;20506;-52
2021/05/19 09:46:21;;;;;;;2.10;1.90;;;27.50;46.00;;;;;;5045224;28;20554;-51
2021/05/19 09:48:47;;;;;;;1.77;1.63;;;27.80;45.00;;;;;;5040706;28;20191;-50
2021/05/19 09:51:28;;;;;;;1.30;1.20;;;26.90;46.00;;;;;;5032847;28;20674;-49
2021/05/19 09:53:54;;;;;;;2.03;1.83;;;26.60;46.70;;;;;;5039983;28;20290;-50
2021/05/19 09:56:20;;;;;;;1.67;1.10;;;27.70;43.70;;;;;;5042626;28;20524;-50
2021/05/19 09:58:47;;;;;;;2.03;1.37;;;27.80;44.10;;;;;;5044066;28;20442;-52
2021/05/19 10:01:13;;;;;;;1.43;1.20;;;26.20;45.60;;;;;;5038936;28;20571;-52
2021/05/19 10:03:39;;;;;;;2.07;1.70;;;25.60;47.40;;;;;;5036286;28;20552;-51
2021/05/19 10:08:40;;;;;;;3.33;1.63;;;23.40;49.80;;;;;;5044035;28;20444;-52
2021/05/19 10:11:05;;;;;;;1.92;1.75;;;22.00;51.40;;;;;;5038587;28;20985;-51
2021/05/19 10:13:34;;;;;;;2.43;1.50;;;21.40;52.20;;;;;;5035521;28;20194;-51
2021/05/19 10:16:02;;;;;;;1.45;1.17;;;20.80;52.00;;;;;;5042018;28;20267;-52
2021/05/19 10:18:39;;;;;;;1.52;1.30;;;20.50;52.70;;;;;;5042897;28;20208;-53
2021/05/19 10:21:07;;;;;;;1.10;1.00;;;20.10;53.30;;;;;;5041158;28;20189;-52
2021/05/19 10:23:38;;;;;;;1.75;1.23;;;19.90;51.60;;;;;;5039045;28;20303;-54
2021/05/19 10:26:12;;;;;;;2.15;1.10;;;19.70;48.50;;;;;;5041206;28;20272;-52
2021/05/19 10:28:44;;;;;;;23.23;18.63;;;19.30;49.00;;;;;;5043312;28;20665;-52
2021/05/19 10:31:31;;;;;;;1.50;0.90;;;19.30;51.50;;;;;;5046118;28;20202;-53
2021/05/19 10:33:58;;;;;;;1.00;0.90;;;19.80;50.70;;;;;;5044765;28;20250;-52
2021/05/19 10:36:24;;;;;;;1.33;0.95;;;20.20;51.10;;;;;;5036333;28;20714;-53
2021/05/19 10:39:11;;;;;;;1.60;1.20;;;20.60;51.90;;;;;;5041972;28;20280;-52
2021/05/19 10:41:49;;;;;;;2.05;0.98;;;21.00;51.10;;;;;;5045677;28;20185;-53
2021/05/19 10:44:21;;;;;;;4.18;3.10;;;20.70;52.40;;;;;;5054110;28;20544;-52
2021/05/19 10:46:51;;;;;;;2.05;1.38;;;20.90;52.60;;;;;;5048116;28;20190;-53
2021/05/19 10:49:18;;;;;;;1.00;0.90;;;21.50;50.50;;;;;;5049123;28;20631;-53
2021/05/19 10:52:10;;;;;;;1.40;1.10;;;21.90;49.80;;;;;;5039638;28;20565;-54
2021/05/19 10:57:50;;;;;;;2.30;1.27;;;22.50;46.90;;;;;;5048731;28;20759;-54
2021/05/19 11:00:22;;;;;;;2.20;0.93;;;23.50;44.70;;;;;;5050195;28;20444;-52
2021/05/19 11:03:00;;;;;;;1.47;1.20;;;24.30;44.30;;;;;;5036287;28;20559;-52
2021/05/19 11:05:32;;;;;;;2.00;1.23;;;24.90;43.80;;;;;;5036812;28;20469;-53
2021/05/19 11:10:33;;;;;;;2.23;1.37;;;25.20;42.60;;;;;;5046151;28;20810;-52
2021/05/19 11:12:59;;;;;;;1.73;1.30;;;25.10;42.70;;;;;;5038748;28;20452;-54
2021/05/19 11:21:03;;;;;;;2.10;1.63;;;23.80;46.10;;;;;;5045750;28;20444;-53
2021/05/19 11:23:29;;;;;;;2.40;1.20;;;22.80;46.50;;;;;;5048925;28;20467;-51
2021/05/19 11:26:12;;;;;;;1.40;1.30;;;23.40;41.60;;;;;;5044406;28;20436;-51
2021/05/19 11:28:39;;;;;;;1.40;1.30;;;23.10;42.50;;;;;;5046129;28;20472;-50
2021/05/19 11:31:10;;;;;;;2.07;1.53;;;23.20;43.10;;;;;;5038058;28;20971;-51
2021/05/19 11:33:56;;;;;;;2.53;1.57;;;22.50;43.70;;;;;;5042626;28;20475;-51
2021/05/19 11:36:41;;;;;;;2.27;1.40;;;22.60;44.40;;;;;;5046547;28;20447;-51
2021/05/19 11:39:24;;;;;;;1.80;1.30;;;22.70;42.90;;;;;;5044431;28;20501;-52
2021/05/19 11:42:13;;;;;;;1.77;1.00;;;23.00;44.30;;;;;;5049039;28;20459;-54
2021/05/19 11:44:48;;;;;;;1.43;1.30;;;23.20;42.90;;;;;;5022059;28;21017;-52
2021/05/19 11:47:15;;;;;;;1.70;1.00;;;22.70;43.90;;;;;;5034581;28;20547;-51
2021/05/19 11:49:40;;;;;;;2.10;1.00;;;22.30;43.10;;;;;;5037459;28;20436;-52
2021/05/19 11:52:06;;;;;;;1.63;1.00;;;21.80;44.60;;;;;;5044143;28;20432;-51
2021/05/19 11:54:42;;;;;;;1.40;1.23;;;21.60;42.30;;;;;;5038971;28;20276;-51
2021/05/19 11:57:10;;;;;;;2.55;1.02;;;21.30;45.30;;;;;;5040755;28;20659;-51
2021/05/19 11:59:38;;;;;;;1.40;1.10;;;21.30;45.40;;;;;;5034687;28;20677;-53
2021/05/19 12:02:04;;;;;;;3.42;1.38;;;20.90;47.40;;;;;;5038181;28;20212;-54
2021/05/19 12:04:33;;;;;;;2.97;2.67;;;20.50;48.70;;;;;;5043000;28;20210;-54
2021/05/19 12:07:52;;;;;;;1.10;1.00;;;20.40;48.80;;;;;;5043666;28;20238;-53
2021/05/19 12:10:18;;;;;;;1.92;1.23;;;19.90;47.50;;;;;;5045114;28;20189;-54
2021/05/19 12:12:53;;;;;;;2.17;1.30;;;19.70;49.50;;;;;;5047838;28;20262;-51
2021/05/19 12:15:20;;;;;;;1.40;1.30;;;19.50;50.60;;;;;;5045942;28;20697;-50
2021/05/19 12:17:45;;;;;;;2.67;1.63;;;19.20;51.30;;;;;;5034036;28;20256;-52
2021/05/19 12:20:22;;;;;;;2.20;1.80;;;19.30;50.60;;;;;;5037723;28;20638;-53
2021/05/19 12:22:48;;;;;;;1.90;1.40;;;19.20;51.40;;;;;;5035122;28;20220;-55
2021/05/19 12:25:14;;;;;;;1.80;1.00;;;19.50;51.50;;;;;;5064198;28;20670;-52
2021/05/19 12:27:40;;;;;;;1.80;1.13;;;19.60;49.40;;;;;;5048370;28;20322;-52
2021/05/19 12:30:08;;;;;;;1.30;1.20;;;19.50;49.30;;;;;;5046037;28;20963;-51
2021/05/19 12:32:34;;;;;;;1.65;1.25;;;19.70;50.20;;;;;;5048672;28;20184;-51
2021/05/19 12:35:00;;;;;;;1.80;1.67;;;19.70;50.20;;;;;;5039610;28;20205;-53
2021/05/19 12:37:53;;;;;;;1.70;1.40;;;20.00;49.70;;;;;;5045473;28;20584;-54
2021/05/19 12:40:31;;;;;;;2.35;1.20;;;19.60;49.40;;;;;;5047088;28;20185;-53
2021/05/19 12:43:08;;;;;;;3.70;1.50;;;19.60;50.10;;;;;;5035117;28;20616;-54
2021/05/19 12:45:41;;;;;;;2.10;1.35;;;19.70;51.70;;;;;;5041107;28;20495;-54
2021/05/19 12:48:10;;;;;;;1.50;1.40;;;19.70;50.60;;;;;;5047658;28;20649;-54
2021/05/19 12:50:44;;;;;;;1.88;1.10;;;19.60;49.50;;;;;;5047200;28;20181;-54
2021/05/19 12:53:48;;;;;;;1.95;1.35;;;19.50;50.20;;;;;;5046829;28;20193;-54
2021/05/19 12:56:24;;;;;;;2.92;1.25;;;19.60;50.10;;;;;;5062849;28;20557;-54
2021/05/19 12:58:58;;;;;;;1.85;1.33;;;19.40;49.20;;;;;;5035719;28;20884;-54
2021/05/19 13:01:25;;;;;;;1.35;0.95;;;19.40;48.20;;;;;;5030340;28;20192;-53
2021/05/19 13:03:52;;;;;;;1.92;1.55;;;19.20;47.70;;;;;;5048191;28;20244;-53
2021/05/19 13:06:18;;;;;;;1.65;1.35;;;19.00;48.60;;;;;;5034461;28;20239;-54
2021/05/19 13:08:56;;;;;;;1.42;1.33;;;19.20;49.50;;;;;;5042695;28;20213;-54
2021/05/19 13:11:22;;;;;;;2.85;1.50;;;19.30;48.90;;;;;;5032301;28;20187;-53
2021/05/19 13:13:49;;;;;;;4.72;1.17;;;19.60;47.50;;;;;;5027953;28;20202;-54
2021/05/19 13:16:24;;;;;;;1.10;1.00;;;19.70;48.00;;;;;;5027973;28;20236;-54
2021/05/19 13:21:34;;;;;;;5.03;1.50;;;19.60;48.10;;;;;;5041381;28;20186;-54